Time;durP1;ratioP1;P1;durP2;ratioP2;P2;SDS_P1;SDS_P2;PMS_P1;PMS_P2;Temp;Humidity;BMP_temperature;BMP_pressure;BME280_temperature;BME280_humidity;BME280_pressure;Samples;Min_cycle;Max_cycle;Signal;HPM_P1;HPM_P2
2022/06/03 00:03:09;;;;;;;0.10;0.10;;;12.20;99.90;;;;;;5065453;28;20246;-68
2022/06/03 00:06:11;;;;;;;0.10;0.10;;;12.10;99.90;;;;;;5070785;28;20310;-69
2022/06/03 00:08:59;;;;;;;0.10;0.10;;;12.20;99.90;;;;;;5053940;28;20217;-69
2022/06/03 00:11:43;;;;;;;0.10;0.10;;;12.30;99.90;;;;;;5071668;28;20750;-69
2022/06/03 00:14:38;;;;;;;0.10;0.10;;;12.40;99.90;;;;;;5071497;28;20354;-69
2022/06/03 00:17:22;;;;;;;0.10;0.10;;;12.20;99.90;;;;;;5064815;28;20202;-69
2022/06/03 00:20:06;;;;;;;0.10;0.10;;;11.80;99.90;;;;;;5070959;28;20652;-69
2022/06/03 00:22:56;;;;;;;0.10;0.10;;;11.80;99.90;;;;;;5070823;28;20201;-69
2022/06/03 00:25:44;;;;;;;0.10;0.10;;;11.60;99.90;;;;;;5070740;28;20259;-70
2022/06/03 00:28:33;;;;;;;0.10;0.10;;;11.60;99.90;;;;;;5059928;28;20214;-69
2022/06/03 00:31:18;;;;;;;0.10;0.10;;;11.50;99.90;;;;;;5067331;28;20217;-70
2022/06/03 00:34:01;;;;;;;0.10;0.10;;;11.70;99.90;;;;;;5071403;28;20231;-68
2022/06/03 00:36:39;;;;;;;0.10;0.10;;;11.70;99.90;;;;;;5070514;28;20201;-68
2022/06/03 00:39:24;;;;;;;0.10;0.10;;;11.70;99.90;;;;;;5070860;28;20186;-68
2022/06/03 00:42:08;;;;;;;0.10;0.10;;;11.70;99.90;;;;;;5070876;28;20198;-70
2022/06/03 00:44:57;;;;;;;0.10;0.10;;;11.70;99.90;;;;;;5071576;28;20577;-69
2022/06/03 00:47:42;;;;;;;0.10;0.10;;;11.60;99.90;;;;;;5070519;28;20214;-67
2022/06/03 00:50:33;;;;;;;0.10;0.10;;;11.50;99.90;;;;;;5069518;28;20661;-68
2022/06/03 00:53:30;;;;;;;0.10;0.10;;;11.50;99.90;;;;;;5063325;28;20229;-68
2022/06/03 00:56:29;;;;;;;0.10;0.10;;;11.50;99.90;;;;;;5025820;28;20219;-68
2022/06/03 00:59:08;;;;;;;0.10;0.10;;;11.70;99.90;;;;;;5056078;28;20601;-68
2022/06/03 01:01:44;;;;;;;0.10;0.10;;;11.60;99.90;;;;;;5070727;28;20733;-70
2022/06/03 01:04:31;;;;;;;0.00;0.00;;;11.40;99.90;;;;;;5070437;28;20278;-69
2022/06/03 01:07:12;;;;;;;0.10;0.10;;;11.40;99.90;;;;;;5070697;28;20201;-68
2022/06/03 01:10:00;;;;;;;0.10;0.10;;;11.30;99.90;;;;;;5065494;28;20186;-68
2022/06/03 01:12:46;;;;;;;0.10;0.10;;;11.20;99.90;;;;;;5068248;28;20243;-68
2022/06/03 01:15:30;;;;;;;0.00;0.00;;;11.10;99.90;;;;;;5070636;28;20235;-69
2022/06/03 01:18:13;;;;;;;0.10;0.10;;;11.00;99.90;;;;;;5068598;28;20194;-68
2022/06/03 01:20:56;;;;;;;0.10;0.10;;;10.90;99.90;;;;;;5067846;28;20657;-69
2022/06/03 01:23:48;;;;;;;0.10;0.10;;;10.90;99.90;;;;;;5050760;28;20214;-68
2022/06/03 01:26:48;;;;;;;0.00;0.00;;;11.00;99.90;;;;;;5065351;28;20255;-70
2022/06/03 01:29:32;;;;;;;0.10;0.10;;;10.90;99.90;;;;;;5074408;28;20225;-69
2022/06/03 01:32:24;;;;;;;0.10;0.10;;;11.00;99.90;;;;;;5069477;28;20201;-68
2022/06/03 01:35:15;;;;;;;0.03;0.03;;;10.90;99.90;;;;;;5069123;28;20272;-68
2022/06/03 01:37:53;;;;;;;0.05;0.05;;;10.80;99.90;;;;;;5054458;28;20190;-69
2022/06/03 01:40:48;;;;;;;0.10;0.10;;;10.80;99.90;;;;;;5072493;28;20272;-68
2022/06/03 01:43:46;;;;;;;0.10;0.10;;;10.80;99.90;;;;;;5074278;28;20763;-69
2022/06/03 01:46:29;;;;;;;0.10;0.10;;;10.90;99.90;;;;;;5059193;28;20595;-68
2022/06/03 01:49:34;;;;;;;0.00;0.00;;;10.90;99.90;;;;;;5059888;28;20597;-68
2022/06/03 01:52:30;;;;;;;0.10;0.10;;;10.70;99.90;;;;;;5074106;28;20231;-67
2022/06/03 01:55:38;;;;;;;0.10;0.10;;;10.70;99.90;;;;;;5054558;28;20721;-70
2022/06/03 01:58:48;;;;;;;0.10;0.10;;;10.70;99.90;;;;;;5054418;28;20535;-68
2022/06/03 02:01:39;;;;;;;0.00;0.00;;;10.80;99.90;;;;;;5064045;28;20193;-68
2022/06/03 02:04:21;;;;;;;0.10;0.10;;;10.90;99.90;;;;;;5041008;28;20290;-67
2022/06/03 02:07:31;;;;;;;0.10;0.10;;;10.80;99.90;;;;;;5074649;28;20205;-68
2022/06/03 02:10:35;;;;;;;0.10;0.10;;;10.70;99.90;;;;;;5067274;28;20735;-70
2022/06/03 02:13:32;;;;;;;0.10;0.10;;;10.50;99.90;;;;;;5054223;28;20190;-67
2022/06/03 02:16:29;;;;;;;0.10;0.10;;;10.30;99.90;;;;;;5054013;28;20211;-68
2022/06/03 02:19:31;;;;;;;0.00;0.00;;;10.20;99.90;;;;;;5063956;28;20209;-68
2022/06/03 02:22:20;;;;;;;0.10;0.10;;;10.00;99.90;;;;;;5036801;28;20210;-68
2022/06/03 02:25:07;;;;;;;0.10;0.10;;;10.00;99.90;;;;;;5075294;28;20247;-68
2022/06/03 02:28:03;;;;;;;0.10;0.10;;;10.00;99.90;;;;;;5080264;28;20190;-68
2022/06/03 02:31:02;;;;;;;0.10;0.10;;;9.90;99.90;;;;;;5081377;28;20201;-68
2022/06/03 02:33:53;;;;;;;0.00;0.00;;;10.00;99.90;;;;;;5070163;28;20222;-68
2022/06/03 02:36:54;;;;;;;0.10;0.10;;;10.00;99.90;;;;;;5065566;28;20217;-69
2022/06/03 02:39:54;;;;;;;0.10;0.10;;;10.00;99.90;;;;;;5062349;28;20231;-68
2022/06/03 02:43:01;;;;;;;0.05;0.05;;;9.90;99.90;;;;;;5077868;28;20201;-68
2022/06/03 02:46:15;;;;;;;0.00;0.00;;;9.90;99.90;;;;;;5077222;28;20201;-67
2022/06/03 02:49:04;;;;;;;0.10;0.10;;;9.90;99.90;;;;;;5059862;28;20278;-68
2022/06/03 02:51:51;;;;;;;0.08;0.08;;;9.90;99.90;;;;;;5073196;28;20212;-69
2022/06/03 02:54:51;;;;;;;0.10;0.10;;;10.00;99.90;;;;;;5059405;28;20654;-69
2022/06/03 02:57:41;;;;;;;0.10;0.10;;;10.00;99.90;;;;;;5063186;28;20256;-69
2022/06/03 03:00:18;;;;;;;0.10;0.10;;;10.00;99.90;;;;;;5067859;28;20247;-69
2022/06/03 03:03:14;;;;;;;0.10;0.10;;;9.70;99.90;;;;;;5071774;28;20193;-69
2022/06/03 03:06:11;;;;;;;0.10;0.10;;;9.50;99.90;;;;;;5052918;28;20301;-69
2022/06/03 03:09:03;;;;;;;0.10;0.10;;;9.50;99.90;;;;;;5054511;28;20240;-71
2022/06/03 03:12:08;;;;;;;0.10;0.10;;;9.50;99.90;;;;;;5072018;28;20193;-69
2022/06/03 03:14:54;;;;;;;0.10;0.10;;;9.50;99.90;;;;;;5072309;28;21042;-69
2022/06/03 03:17:56;;;;;;;0.05;0.05;;;9.40;99.90;;;;;;5072698;28;20205;-69
2022/06/03 03:20:50;;;;;;;0.10;0.10;;;9.30;99.90;;;;;;5049176;28;20210;-68
2022/06/03 03:23:48;;;;;;;0.08;0.08;;;9.20;99.90;;;;;;5067828;28;20233;-68
2022/06/03 03:26:23;;;;;;;0.03;0.03;;;9.10;99.90;;;;;;5072452;28;20202;-68
2022/06/03 03:29:19;;;;;;;0.00;0.00;;;9.20;99.90;;;;;;5071556;28;20631;-68
2022/06/03 03:32:04;;;;;;;0.10;0.10;;;9.10;99.90;;;;;;5071491;28;20216;-68
2022/06/03 03:35:03;;;;;;;0.10;0.10;;;9.10;99.90;;;;;;5072071;28;20318;-67
2022/06/03 03:38:06;;;;;;;0.10;0.10;;;9.20;99.90;;;;;;5070874;28;20194;-69
2022/06/03 03:41:24;;;;;;;0.10;0.10;;;9.20;99.90;;;;;;5069000;28;20189;-69
2022/06/03 03:44:34;;;;;;;0.10;0.10;;;9.30;99.90;;;;;;5071216;28;20257;-68
2022/06/03 03:47:32;;;;;;;0.10;0.10;;;9.40;99.90;;;;;;5039817;28;20205;-68
2022/06/03 03:50:26;;;;;;;0.10;0.10;;;9.60;99.90;;;;;;5071320;28;20221;-68
2022/06/03 03:53:30;;;;;;;0.10;0.10;;;9.40;99.90;;;;;;5072283;28;20243;-68
2022/06/03 03:56:33;;;;;;;0.00;0.00;;;9.50;99.90;;;;;;5036041;28;20648;-69
2022/06/03 03:59:42;;;;;;;0.10;0.10;;;9.30;99.90;;;;;;5059965;28;20194;-68
2022/06/03 04:02:38;;;;;;;0.10;0.10;;;9.20;99.90;;;;;;5072248;28;20255;-68
2022/06/03 04:05:38;;;;;;;0.10;0.10;;;9.20;99.90;;;;;;5071547;28;20622;-68
2022/06/03 04:08:27;;;;;;;0.10;0.10;;;9.30;99.90;;;;;;5052233;28;20612;-68
2022/06/03 04:11:11;;;;;;;0.10;0.10;;;9.30;99.90;;;;;;5065068;28;20226;-68
2022/06/03 04:14:17;;;;;;;0.10;0.10;;;9.50;99.90;;;;;;5071735;28;20220;-68
2022/06/03 04:17:25;;;;;;;0.10;0.10;;;9.50;99.90;;;;;;5069995;28;20224;-68
2022/06/03 04:20:30;;;;;;;0.10;0.10;;;9.50;99.90;;;;;;5071171;28;20267;-68
2022/06/03 04:23:21;;;;;;;0.10;0.10;;;9.40;99.90;;;;;;5059916;28;20202;-68
2022/06/03 04:26:24;;;;;;;0.10;0.10;;;9.40;99.90;;;;;;5071598;28;20277;-68
2022/06/03 04:29:06;;;;;;;0.10;0.10;;;9.40;99.90;;;;;;5069359;28;20212;-68
2022/06/03 04:32:15;;;;;;;0.10;0.10;;;9.30;99.90;;;;;;5064727;28;20205;-67
2022/06/03 04:35:27;;;;;;;0.10;0.10;;;9.40;99.90;;;;;;5069159;28;20233;-68
2022/06/03 04:38:19;;;;;;;0.10;0.10;;;9.50;99.90;;;;;;5051309;28;20209;-68
2022/06/03 04:41:23;;;;;;;0.10;0.10;;;9.60;99.90;;;;;;5059665;28;20256;-68
2022/06/03 04:44:39;;;;;;;0.00;0.00;;;9.70;99.90;;;;;;5065114;28;20217;-68
2022/06/03 04:47:42;;;;;;;0.10;0.10;;;9.80;99.90;;;;;;5067654;28;20205;-68
2022/06/03 04:50:54;;;;;;;0.03;0.03;;;10.00;99.90;;;;;;5065056;28;20243;-68
2022/06/03 04:54:01;;;;;;;0.08;0.08;;;10.20;99.90;;;;;;5069642;28;20279;-68
2022/06/03 04:57:06;;;;;;;0.10;0.10;;;10.30;99.90;;;;;;5054480;28;20228;-68
2022/06/03 05:00:12;;;;;;;0.10;0.10;;;10.40;99.90;;;;;;5078439;28;20254;-68
2022/06/03 05:03:32;;;;;;;0.10;0.10;;;10.50;99.90;;;;;;5075687;28;20209;-69
2022/06/03 05:06:34;;;;;;;0.10;0.10;;;10.60;99.90;;;;;;5078133;28;20200;-68
2022/06/03 05:09:36;;;;;;;0.10;0.10;;;10.50;99.90;;;;;;5078719;28;20531;-69
2022/06/03 05:12:37;;;;;;;0.10;0.10;;;10.60;99.90;;;;;;5081006;28;20208;-69
2022/06/03 05:15:51;;;;;;;0.10;0.10;;;10.60;99.90;;;;;;5078929;28;20220;-69
2022/06/03 05:19:03;;;;;;;0.10;0.10;;;10.70;99.90;;;;;;5058892;28;20622;-68
2022/06/03 05:21:56;;;;;;;0.10;0.10;;;10.80;99.90;;;;;;5077323;28;20206;-68
2022/06/03 05:25:01;;;;;;;0.10;0.10;;;10.80;99.90;;;;;;5078626;28;20548;-68
2022/06/03 05:27:57;;;;;;;0.10;0.10;;;11.00;99.90;;;;;;5077534;28;20606;-68
2022/06/03 05:31:03;;;;;;;0.10;0.10;;;11.10;99.90;;;;;;5074439;28;20225;-68
2022/06/03 05:34:13;;;;;;;0.00;0.00;;;11.20;99.90;;;;;;5076229;28;20224;-68
2022/06/03 05:37:19;;;;;;;0.10;0.10;;;11.30;99.90;;;;;;5078950;28;20193;-68
2022/06/03 05:40:26;;;;;;;0.10;0.10;;;11.50;99.90;;;;;;5063329;28;20669;-68
2022/06/03 05:43:21;;;;;;;0.10;0.10;;;11.70;99.90;;;;;;5077526;28;20688;-68
2022/06/03 05:46:13;;;;;;;0.05;0.05;;;11.90;99.90;;;;;;5079963;28;20251;-68
2022/06/03 05:48:48;;;;;;;0.10;0.10;;;12.00;99.90;;;;;;5075538;28;20209;-68
2022/06/03 05:51:35;;;;;;;0.10;0.10;;;12.10;99.90;;;;;;5077594;28;20219;-67
2022/06/03 05:54:12;;;;;;;0.10;0.10;;;12.20;99.90;;;;;;5078866;28;20220;-67
2022/06/03 05:56:49;;;;;;;0.10;0.10;;;12.30;99.90;;;;;;5079156;28;20197;-69
2022/06/03 05:59:37;;;;;;;0.10;0.10;;;12.40;99.90;;;;;;5076435;28;20204;-68
2022/06/03 06:02:15;;;;;;;0.10;0.10;;;12.50;99.90;;;;;;5076902;28;20202;-69
2022/06/03 06:04:58;;;;;;;0.08;0.08;;;12.60;99.90;;;;;;5079194;28;20232;-69
2022/06/03 06:07:32;;;;;;;0.00;0.00;;;12.70;99.90;;;;;;5077331;28;20219;-69
2022/06/03 06:10:15;;;;;;;0.00;0.00;;;12.80;99.90;;;;;;5074939;28;20212;-69
2022/06/03 06:12:57;;;;;;;0.10;0.10;;;12.90;99.90;;;;;;5074222;28;20247;-69
2022/06/03 06:15:38;;;;;;;0.10;0.10;;;13.00;99.90;;;;;;5080022;28;20205;-69
2022/06/03 06:18:16;;;;;;;0.10;0.10;;;13.20;99.90;;;;;;5081016;28;20280;-69
2022/06/03 06:20:54;;;;;;;0.00;0.00;;;13.40;99.90;;;;;;5080928;28;20196;-69
2022/06/03 06:23:38;;;;;;;0.00;0.00;;;13.50;99.90;;;;;;5080224;28;20225;-69
2022/06/03 06:26:34;;;;;;;0.10;0.10;;;13.70;99.90;;;;;;5079473;28;20229;-69
2022/06/03 06:29:28;;;;;;;0.00;0.00;;;14.00;99.90;;;;;;5079503;28;20216;-69
2022/06/03 06:32:22;;;;;;;0.08;0.08;;;14.10;99.90;;;;;;5076169;28;20641;-69
2022/06/03 06:35:27;;;;;;;0.10;0.10;;;14.30;99.90;;;;;;5075352;28;20244;-69
2022/06/03 06:38:02;;;;;;;0.10;0.10;;;14.40;99.90;;;;;;5068031;28;20217;-69
2022/06/03 06:40:42;;;;;;;0.00;0.00;;;14.70;99.90;;;;;;5079920;28;20194;-70
2022/06/03 06:43:26;;;;;;;0.00;0.00;;;14.80;99.90;;;;;;5078047;28;20278;-68
2022/06/03 06:45:59;;;;;;;0.10;0.10;;;15.10;99.90;;;;;;5078290;28;20726;-68
2022/06/03 06:48:41;;;;;;;0.10;0.10;;;15.30;99.90;;;;;;5078865;28;20572;-68
2022/06/03 06:51:32;;;;;;;0.00;0.00;;;15.40;99.90;;;;;;5079001;28;20477;-68
2022/06/03 06:54:05;;;;;;;0.00;0.00;;;15.60;99.90;;;;;;5075956;28;20229;-68
2022/06/03 06:56:45;;;;;;;0.00;0.00;;;15.70;99.90;;;;;;5078310;28;20706;-68
2022/06/03 06:59:20;;;;;;;0.00;0.00;;;15.80;99.90;;;;;;5079035;28;20197;-68
2022/06/03 07:01:55;;;;;;;0.00;0.00;;;16.00;99.90;;;;;;5077212;28;20201;-68
2022/06/03 07:04:28;;;;;;;0.00;0.00;;;16.20;99.90;;;;;;5079476;28;20304;-68
2022/06/03 07:07:03;;;;;;;0.00;0.00;;;16.30;99.90;;;;;;5078297;28;20205;-68
2022/06/03 07:09:48;;;;;;;0.00;0.00;;;16.40;99.90;;;;;;5077311;28;20269;-68
2022/06/03 07:12:18;;;;;;;0.00;0.00;;;16.50;99.90;;;;;;5077966;28;20220;-68
2022/06/03 07:15:12;;;;;;;0.00;0.00;;;16.70;99.90;;;;;;5079622;28;20642;-68
2022/06/03 07:20:43;;;;;;;0.00;0.00;;;17.00;99.90;;;;;;5078351;28;20208;-68
2022/06/03 07:23:17;;;;;;;0.00;0.00;;;17.20;99.90;;;;;;5079548;28;20278;-69
2022/06/03 07:25:47;;;;;;;0.00;0.00;;;17.40;99.90;;;;;;5082271;28;20227;-68
2022/06/03 07:28:29;;;;;;;0.00;0.00;;;17.60;99.90;;;;;;5081335;28;20202;-68
2022/06/03 07:31:09;;;;;;;0.00;0.00;;;17.70;99.90;;;;;;5079824;28;20220;-68
2022/06/03 07:33:44;;;;;;;0.00;0.00;;;17.80;99.90;;;;;;5079378;28;20258;-68
2022/06/03 07:36:18;;;;;;;0.00;0.00;;;17.90;99.90;;;;;;5081557;28;20198;-68
2022/06/03 07:38:52;;;;;;;0.00;0.00;;;17.90;99.90;;;;;;5079622;28;20197;-68
2022/06/03 07:41:27;;;;;;;0.00;0.00;;;18.10;99.90;;;;;;5078852;28;20258;-68
2022/06/03 07:44:02;;;;;;;0.00;0.00;;;18.20;99.90;;;;;;5079550;28;20251;-68
2022/06/03 07:46:41;;;;;;;0.00;0.00;;;18.40;99.90;;;;;;5077749;28;20200;-68
2022/06/03 07:49:10;;;;;;;0.00;0.00;;;18.60;99.90;;;;;;5079351;28;20660;-68
2022/06/03 07:51:42;;;;;;;0.00;0.00;;;18.70;99.90;;;;;;5079178;28;20240;-69
2022/06/03 07:54:14;;;;;;;0.00;0.00;;;18.90;99.90;;;;;;5078893;28;20325;-68
2022/06/03 07:56:42;;;;;;;0.00;0.00;;;19.10;99.90;;;;;;5079883;28;20616;-68
2022/06/03 07:59:18;;;;;;;0.00;0.00;;;19.40;99.90;;;;;;5079175;28;20346;-68
2022/06/03 08:01:59;;;;;;;0.03;0.03;;;19.60;99.90;;;;;;5079232;28;20618;-68
2022/06/03 08:04:29;;;;;;;0.00;0.00;;;19.80;99.90;;;;;;5080833;28;20307;-68
2022/06/03 08:12:34;;;;;;;0.00;0.00;;;20.20;99.90;;;;;;5077801;28;20631;-68
2022/06/03 08:15:14;;;;;;;0.00;0.00;;;20.30;99.90;;;;;;5075154;28;20619;-68
2022/06/03 08:17:46;;;;;;;0.00;0.00;;;20.50;99.90;;;;;;5075346;28;20206;-68
2022/06/03 08:20:17;;;;;;;0.00;0.00;;;20.70;99.90;;;;;;5076708;28;20193;-68
2022/06/03 08:22:46;;;;;;;0.00;0.00;;;20.90;99.90;;;;;;5078870;28;20197;-68
2022/06/03 08:25:18;;;;;;;0.00;0.00;;;20.90;99.90;;;;;;5076100;28;20225;-68
2022/06/03 08:27:48;;;;;;;0.00;0.00;;;21.00;99.90;;;;;;5078039;28;20566;-68
2022/06/03 08:30:21;;;;;;;0.00;0.00;;;21.10;99.90;;;;;;5079942;28;20193;-68
2022/06/03 08:32:57;;;;;;;0.00;0.00;;;21.20;99.90;;;;;;5074838;28;20757;-66
2022/06/03 08:35:28;;;;;;;0.00;0.00;;;21.40;99.90;;;;;;5072130;28;20696;-67
2022/06/03 08:37:59;;;;;;;0.00;0.00;;;21.50;99.90;;;;;;5069607;28;20198;-67
2022/06/03 08:40:45;;;;;;;0.00;0.00;;;21.70;99.90;;;;;;5072960;28;20236;-67
2022/06/03 08:43:22;;;;;;;0.00;0.00;;;21.90;99.90;;;;;;5072925;28;20637;-67
2022/06/03 08:45:56;;;;;;;0.00;0.00;;;22.00;99.90;;;;;;5072788;28;20204;-67
2022/06/03 08:48:32;;;;;;;0.00;0.00;;;22.20;99.90;;;;;;5072197;28;20217;-67
2022/06/03 08:51:04;;;;;;;0.00;0.00;;;22.30;99.90;;;;;;5076608;28;20204;-67
2022/06/03 08:53:40;;;;;;;0.00;0.00;;;22.40;99.90;;;;;;5077384;28;20829;-67
2022/06/03 08:56:10;;;;;;;0.00;0.00;;;22.60;99.90;;;;;;5079184;28;20208;-67
2022/06/03 08:58:45;;;;;;;0.00;0.00;;;22.70;99.90;;;;;;5077561;28;20209;-66
2022/06/03 09:01:21;;;;;;;0.00;0.00;;;22.80;99.90;;;;;;5078939;28;20200;-67
2022/06/03 09:03:56;;;;;;;0.00;0.00;;;22.90;99.90;;;;;;5078073;28;20738;-69
2022/06/03 09:06:43;;;;;;;0.00;0.00;;;23.00;99.90;;;;;;5078023;28;20204;-67
2022/06/03 09:09:18;;;;;;;0.00;0.00;;;23.10;99.90;;;;;;5077885;28;20615;-66
2022/06/03 09:11:52;;;;;;;0.00;0.00;;;23.30;99.90;;;;;;5079541;28;20774;-67
2022/06/03 09:14:23;;;;;;;0.00;0.00;;;23.50;99.90;;;;;;5078216;28;20228;-67
2022/06/03 09:16:55;;;;;;;0.00;0.00;;;23.60;99.80;;;;;;5079603;28;20250;-68
2022/06/03 09:19:28;;;;;;;0.00;0.00;;;23.80;99.80;;;;;;5076519;28;20214;-67
2022/06/03 09:22:06;;;;;;;0.00;0.00;;;23.90;99.30;;;;;;5075539;28;20190;-67
2022/06/03 09:24:40;;;;;;;0.00;0.00;;;24.00;99.30;;;;;;5076715;28;20221;-67
2022/06/03 09:27:10;;;;;;;0.00;0.00;;;24.20;98.90;;;;;;5077547;28;20883;-67
2022/06/03 09:29:39;;;;;;;0.00;0.00;;;24.30;98.70;;;;;;5075381;28;20206;-67
2022/06/03 09:32:08;;;;;;;0.00;0.00;;;24.40;98.70;;;;;;5076682;28;20282;-67
2022/06/03 09:34:42;;;;;;;0.00;0.00;;;24.50;98.70;;;;;;5076223;28;20300;-67
2022/06/03 09:37:13;;;;;;;0.00;0.00;;;24.60;98.50;;;;;;5077136;28;20197;-67
2022/06/03 09:39:43;;;;;;;0.00;0.00;;;24.70;98.00;;;;;;5076828;28;20686;-67
2022/06/03 09:42:12;;;;;;;0.00;0.00;;;24.90;97.80;;;;;;5076362;28;20189;-67
2022/06/03 09:44:42;;;;;;;0.00;0.00;;;24.90;97.80;;;;;;5079210;28;20604;-68
2022/06/03 09:47:11;;;;;;;0.00;0.00;;;25.00;97.70;;;;;;5079772;28;20676;-69
2022/06/03 09:49:40;;;;;;;0.00;0.00;;;25.10;97.30;;;;;;5079855;28;20737;-69
2022/06/03 09:52:12;;;;;;;0.00;0.00;;;25.10;97.20;;;;;;5080820;28;20683;-69
2022/06/03 09:54:43;;;;;;;0.00;0.00;;;25.20;97.10;;;;;;5083335;28;20216;-69
2022/06/03 09:57:15;;;;;;;0.00;0.00;;;25.40;96.80;;;;;;5082895;28;20249;-69
2022/06/03 09:59:52;;;;;;;0.00;0.00;;;25.50;96.70;;;;;;5083281;28;20672;-69
2022/06/03 10:02:20;;;;;;;0.00;0.00;;;25.70;96.60;;;;;;5082711;28;20710;-68
2022/06/03 10:04:49;;;;;;;0.00;0.00;;;25.80;96.60;;;;;;5083272;28;20462;-70
2022/06/03 10:07:17;;;;;;;0.00;0.00;;;25.90;96.50;;;;;;5083127;28;20197;-68
2022/06/03 10:12:49;;;;;;;0.00;0.00;;;26.00;96.20;;;;;;5077900;28;20274;-69
2022/06/03 10:15:39;;;;;;;0.00;0.00;;;26.20;95.90;;;;;;5081238;28;20192;-71
2022/06/03 10:18:19;;;;;;;0.00;0.00;;;26.40;95.70;;;;;;5082558;28;20664;-68
2022/06/03 10:20:50;;;;;;;0.00;0.00;;;26.50;95.30;;;;;;5081743;28;20193;-69
2022/06/03 10:23:20;;;;;;;0.00;0.00;;;26.60;94.90;;;;;;5083554;28;20388;-68
2022/06/03 10:26:09;;;;;;;0.00;0.00;;;26.70;95.00;;;;;;5083590;28;20233;-69
2022/06/03 10:28:39;;;;;;;0.00;0.00;;;26.80;94.70;;;;;;5081201;28;20197;-68
2022/06/03 10:31:14;;;;;;;0.00;0.00;;;26.70;94.70;;;;;;5080479;28;20280;-69
2022/06/03 10:33:52;;;;;;;0.00;0.00;;;26.70;94.30;;;;;;5083285;28;20224;-69
2022/06/03 10:36:24;;;;;;;0.00;0.00;;;26.60;94.50;;;;;;5081295;28;20204;-69
2022/06/03 10:38:52;;;;;;;0.00;0.00;;;26.80;94.30;;;;;;5077910;28;20201;-69
2022/06/03 10:41:30;;;;;;;0.00;0.00;;;26.80;94.10;;;;;;5080536;28;20208;-69
2022/06/03 10:43:57;;;;;;;0.00;0.00;;;26.90;94.00;;;;;;5082237;28;20251;-69
2022/06/03 10:46:31;;;;;;;0.00;0.00;;;26.90;94.10;;;;;;5082589;28;20565;-68
2022/06/03 10:49:11;;;;;;;0.00;0.00;;;27.00;93.70;;;;;;5081790;28;20202;-69
2022/06/03 11:02:51;;;;;;;0.00;0.00;;;27.50;93.00;;;;;;5081901;28;20202;-69
2022/06/03 11:05:24;;;;;;;0.00;0.00;;;27.60;93.10;;;;;;5081544;28;20610;-69
2022/06/03 11:08:02;;;;;;;0.00;0.00;;;27.80;93.10;;;;;;5081075;28;20667;-69
2022/06/03 11:10:41;;;;;;;0.00;0.00;;;27.80;92.50;;;;;;5081203;28;20995;-68
2022/06/03 11:13:15;;;;;;;0.00;0.00;;;27.60;93.00;;;;;;5084655;28;20312;-69
2022/06/03 11:15:45;;;;;;;0.00;0.00;;;27.70;92.90;;;;;;5084448;28;20197;-69
2022/06/03 11:18:18;;;;;;;0.00;0.00;;;27.80;92.50;;;;;;5082180;28;20244;-68
2022/06/03 11:20:48;;;;;;;0.00;0.00;;;28.00;92.40;;;;;;5085453;28;20258;-69
2022/06/03 11:23:18;;;;;;;0.00;0.00;;;28.10;92.60;;;;;;5086558;28;20230;-69
2022/06/03 11:25:49;;;;;;;0.00;0.00;;;28.20;92.40;;;;;;5082489;28;20212;-69
2022/06/03 11:28:21;;;;;;;0.00;0.00;;;28.40;92.10;;;;;;5082591;28;20193;-69
2022/06/03 11:31:12;;;;;;;0.00;0.00;;;28.50;91.80;;;;;;5080689;28;20275;-69
2022/06/03 11:33:45;;;;;;;0.00;0.00;;;28.40;91.70;;;;;;5083926;28;20226;-69
2022/06/03 11:36:20;;;;;;;0.00;0.00;;;28.40;91.70;;;;;;5084134;28;20676;-69
2022/06/03 11:38:54;;;;;;;0.00;0.00;;;28.40;91.90;;;;;;5079577;28;20204;-69
2022/06/03 11:41:25;;;;;;;0.00;0.00;;;28.30;91.80;;;;;;5081220;28;20204;-69
2022/06/03 11:43:58;;;;;;;0.00;0.00;;;28.50;91.70;;;;;;5079223;28;20244;-68
2022/06/03 11:46:34;;;;;;;0.00;0.00;;;28.70;91.20;;;;;;5080487;28;20208;-69
2022/06/03 11:49:04;;;;;;;0.00;0.00;;;28.80;91.10;;;;;;5076316;28;20211;-69
2022/06/03 11:51:32;;;;;;;0.00;0.00;;;28.90;91.00;;;;;;5080176;28;20209;-69
2022/06/03 11:54:02;;;;;;;0.00;0.00;;;29.00;90.80;;;;;;5080644;28;20275;-70
2022/06/03 11:56:36;;;;;;;0.00;0.00;;;29.10;90.40;;;;;;5080254;28;20202;-69
2022/06/03 11:59:10;;;;;;;0.00;0.00;;;29.20;90.50;;;;;;5079173;28;20202;-69
2022/06/03 12:01:53;;;;;;;0.00;0.00;;;29.30;89.30;;;;;;5078448;28;21291;-69
2022/06/03 12:04:37;;;;;;;0.00;0.00;;;29.30;89.00;;;;;;5081650;28;20711;-69
2022/06/03 12:07:15;;;;;;;0.00;0.00;;;29.40;88.70;;;;;;5077877;28;20208;-70
2022/06/03 12:09:52;;;;;;;0.00;0.00;;;29.30;88.50;;;;;;5080327;28;20204;-69
2022/06/03 12:15:38;;;;;;;0.00;0.00;;;29.30;87.00;;;;;;5079526;28;20204;-69
2022/06/03 12:18:37;;;;;;;0.00;0.00;;;29.30;88.70;;;;;;5078346;28;20203;-70
2022/06/03 12:21:07;;;;;;;0.00;0.00;;;29.50;88.30;;;;;;5078695;28;20197;-70
2022/06/03 12:23:51;;;;;;;0.00;0.00;;;29.80;87.40;;;;;;5077292;28;20716;-70
2022/06/03 12:26:27;;;;;;;0.00;0.00;;;29.90;85.70;;;;;;5075363;28;20210;-69
2022/06/03 12:28:58;;;;;;;0.00;0.00;;;29.90;86.30;;;;;;5081200;28;20544;-69
2022/06/03 12:31:37;;;;;;;0.00;0.00;;;30.00;85.70;;;;;;5076643;28;20197;-70
2022/06/03 12:34:21;;;;;;;0.00;0.00;;;30.10;85.60;;;;;;5081600;28;20229;-70
2022/06/03 12:36:55;;;;;;;0.00;0.00;;;30.10;85.60;;;;;;5082397;28;20275;-70
2022/06/03 12:39:27;;;;;;;0.00;0.00;;;30.20;85.70;;;;;;5080161;28;20212;-69
2022/06/03 12:42:08;;;;;;;0.00;0.00;;;30.30;84.70;;;;;;5080651;28;20208;-69
2022/06/03 12:44:52;;;;;;;0.00;0.00;;;30.40;84.10;;;;;;5080415;28;20225;-69
2022/06/03 12:47:50;;;;;;;0.00;0.00;;;30.30;83.70;;;;;;5079857;28;20706;-69
2022/06/03 12:50:25;;;;;;;0.00;0.00;;;30.30;83.90;;;;;;5079239;28;20227;-69
2022/06/03 12:52:58;;;;;;;0.00;0.00;;;30.10;81.70;;;;;;5079977;28;20238;-69
2022/06/03 12:55:28;;;;;;;0.00;0.00;;;30.00;82.90;;;;;;5080770;28;20325;-69
2022/06/03 12:57:59;;;;;;;0.00;0.00;;;29.90;82.30;;;;;;5081581;28;20246;-69
2022/06/03 13:00:32;;;;;;;0.00;0.00;;;29.30;83.20;;;;;;5078060;28;20202;-69
2022/06/03 13:03:02;;;;;;;0.00;0.00;;;29.30;83.50;;;;;;5081274;28;20196;-69
2022/06/03 13:05:40;;;;;;;0.00;0.00;;;29.00;83.80;;;;;;5080388;28;20692;-68
2022/06/03 13:08:12;;;;;;;0.00;0.00;;;29.30;83.60;;;;;;5081415;28;20675;-69
2022/06/03 13:10:57;;;;;;;0.00;0.00;;;29.40;83.30;;;;;;5076580;28;20213;-70
2022/06/03 13:14:07;;;;;;;0.00;0.00;;;29.50;82.70;;;;;;5077964;28;20225;-70
2022/06/03 13:16:47;;;;;;;0.00;0.00;;;29.00;83.80;;;;;;5079062;28;20205;-69
2022/06/03 13:20:00;;;;;;;0.00;0.00;;;29.20;83.40;;;;;;5080511;28;20216;-69
2022/06/03 13:22:47;;;;;;;0.00;0.00;;;29.40;83.00;;;;;;5080195;28;20745;-69
2022/06/03 13:25:35;;;;;;;0.00;0.00;;;29.30;82.40;;;;;;5084636;28;20223;-69
2022/06/03 13:28:25;;;;;;;0.00;0.00;;;29.30;82.80;;;;;;5084171;28;20216;-69
2022/06/03 13:31:09;;;;;;;0.00;0.00;;;29.60;82.50;;;;;;5083118;28;20247;-68
2022/06/03 13:34:01;;;;;;;0.00;0.00;;;29.70;82.80;;;;;;5083775;28;20319;-69
2022/06/03 13:36:33;;;;;;;0.00;0.00;;;29.80;82.00;;;;;;5083458;28;20208;-70
2022/06/03 13:39:02;;;;;;;0.00;0.00;;;29.80;81.60;;;;;;5084767;28;20617;-68
2022/06/03 13:44:41;;;;;;;0.00;0.00;;;29.20;82.20;;;;;;5083536;28;20229;-69
2022/06/03 13:47:14;;;;;;;0.00;0.00;;;28.70;81.70;;;;;;5082438;28;20538;-69
2022/06/03 13:49:50;;;;;;;0.00;0.00;;;28.50;82.70;;;;;;5083985;28;20200;-69
2022/06/03 13:52:22;;;;;;;0.00;0.00;;;28.60;82.30;;;;;;5082447;28;20211;-69
2022/06/03 13:54:53;;;;;;;0.00;0.00;;;28.30;82.20;;;;;;5081509;28;20632;-69
2022/06/03 13:57:31;;;;;;;0.00;0.00;;;28.30;82.60;;;;;;5082197;28;20205;-69
2022/06/03 14:00:19;;;;;;;0.00;0.00;;;28.40;82.20;;;;;;5083553;28;20204;-69
2022/06/03 14:02:52;;;;;;;0.00;0.00;;;28.30;82.40;;;;;;5084200;28;20611;-69
2022/06/03 14:05:31;;;;;;;0.00;0.00;;;28.30;82.70;;;;;;5082779;28;20253;-70
2022/06/03 14:08:05;;;;;;;0.00;0.00;;;28.50;83.50;;;;;;5080576;28;20219;-69
2022/06/03 14:10:43;;;;;;;0.00;0.00;;;28.10;83.60;;;;;;5082235;28;20217;-69
2022/06/03 14:13:19;;;;;;;0.00;0.00;;;28.00;84.30;;;;;;5082737;28;20695;-69
2022/06/03 14:15:57;;;;;;;0.00;0.00;;;28.40;84.10;;;;;;5082595;28;20221;-69
2022/06/03 14:18:50;;;;;;;0.00;0.00;;;28.80;84.20;;;;;;5082667;28;20212;-69
2022/06/03 14:21:43;;;;;;;0.00;0.00;;;29.10;84.30;;;;;;5082366;28;20276;-69
2022/06/03 14:24:16;;;;;;;0.00;0.00;;;29.10;84.10;;;;;;5080197;28;20771;-69
2022/06/03 14:26:47;;;;;;;0.00;0.00;;;29.20;84.20;;;;;;5082807;28;20204;-68
2022/06/03 14:29:21;;;;;;;0.00;0.00;;;29.50;84.00;;;;;;5082179;28;20205;-69
2022/06/03 14:31:54;;;;;;;0.00;0.00;;;29.50;82.70;;;;;;5082566;28;20201;-70
2022/06/03 14:34:27;;;;;;;0.00;0.00;;;29.60;82.60;;;;;;5079937;28;20220;-70
2022/06/03 14:36:58;;;;;;;0.00;0.00;;;29.70;82.70;;;;;;5081512;28;20536;-70
2022/06/03 14:39:30;;;;;;;0.00;0.00;;;29.60;82.30;;;;;;5081809;28;20605;-70
2022/06/03 14:42:05;;;;;;;0.00;0.00;;;29.40;81.80;;;;;;5080877;28;20202;-70
2022/06/03 14:44:34;;;;;;;0.00;0.00;;;29.30;82.70;;;;;;5082594;28;20671;-70